Decoded Metar for KALI (ALICE in TX, USA) (IATA:ALI) | Meteo·Mobile Aviation Weather
aviador You're here:

KALI Decoded Metar

ALICE in TX, USA
Report Time2018-08-16 17:53:00
UTC Time2018-08-16 18:17:16
Flight Rules vfr VFR
Wind160° at 17 Gusting to 20 kt
W.Decomp.*RWY 17: 16.3 kt HW 4.7 kt LCW
RWY 13: 15.5 kt HW 6.9 kt RCW
W.Rank160° ranks 4
Current wind is above 160° avg. (9.2)
Visibility9999 m
Phenomena:N/A
Clouds:Few 045 Hf
Expected CloudBase > 4,800 ft AGL from Temp-Dew spread
CeilingNone
Temp34°C (ISA +19)
Dew Point22°C (49% RH)
Heat Index38.1°C
AAT32.4°C
QNH1017 hPa
Density Alt2,589 ft
Elevation174 ft
Report Wrong Elevation
Raw Report
KALI 161753Z AUTO 16017G20KT 10SM FEW045 34/22 A3002 RMK AO2
SLP161 T03440217 10356 20250 58002=

Extra information for KALI:More info

Metar Taf Metar & Taf Last 4 Metars F.Rules Stats Wind Profile Meteogram Temp Stats Airport Information Weather charts Add Link Nearby VenuesMetar ALERT Operation Metar Decoded Social comments

AIRNAV info for KALI